No particular awareness of the weather is required.    There are no Weather-warnings


Meteo18 Weather Cam more information Meteo18 Weather Cam


Thunder radar more information blitzortung!


Rain radar more information rain snow radar


Visit our other weather sites:

Template documentation
and downloads

And another site



Weather Underground History page Text

Daily Summary for March 4, 2017 Units:  Both    English   Metric
« Previous Day
Next Day »
Daily Weekly Monthly Yearly Custom
  High: Low: Average:
Temperature: 53.8 °F /  12.1 °C 41.7 °F /  5.4 °C 46.2 °F /  7.9 °C
Dew Point: 45.3 °F /  7.4 °C 38.5 °F /  3.6 °C 42.8 °F /  6 °C
Humidity: 96 % 65 % 88 %
Wind Speed: 14 mph /  22.5 km/h - 5 mph /  8.1 km/h
Wind Gust: 33 mph /  53.1 km/h - -
Wind:- - SW
Pressure: 29.6 in /  1003.9 hPa 29.3 in /  992.4 hPa -
Precipitation: 0.8 in /  20.3 mm    
Historical Graphs
 
 
Tabular Data for March 4, 2017
Time Temperature Dew Point Pressure Wind Wind Speed Wind Gust Humidity Rainfall Rate (Hourly)
00:02 53.8 °F /  12.1 °C 42.6 °F /  5.9 °C 29.5 in /  997.2 hPa SE 6 mph /  9.7 km/h 11 mph /  17.7 km/h 66 % 0 in /  0.0 mm
00:07 53.8 °F /  12.1 °C 42.3 °F /  5.7 °C 29.4 in /  996.8 hPa SSE 7 mph /  11.3 km/h 15 mph /  24.1 km/h 65 % 0 in /  0.0 mm
00:12 53.8 °F /  12.1 °C 42.6 °F /  5.9 °C 29.4 in /  996.8 hPa SE 6 mph /  9.7 km/h 15 mph /  24.1 km/h 66 % 0 in /  0.0 mm
00:17 53.6 °F /  12.0 °C 43 °F /  6.1 °C 29.5 in /  997.2 hPa SE 6 mph /  9.7 km/h 15 mph /  24.1 km/h 67 % 0 in /  0.0 mm
00:22 53.1 °F /  11.7 °C 43.2 °F /  6.2 °C 29.5 in /  997.2 hPa SE 6 mph /  9.7 km/h 15 mph /  24.1 km/h 69 % 0 in /  0.0 mm
00:32 52 °F /  11.1 °C 43.9 °F /  6.6 °C 29.5 in /  997.5 hPa SE 5 mph /  8.0 km/h 16 mph /  25.7 km/h 74 % 0.02 in /  0.5 mm
00:42 51.3 °F /  10.7 °C 43.5 °F /  6.4 °C 29.4 in /  996.8 hPa SE 5 mph /  8.0 km/h 16 mph /  25.7 km/h 75 % 0.03 in /  0.8 mm
00:47 51.3 °F /  10.7 °C 43.9 °F /  6.6 °C 29.5 in /  997.2 hPa SSE 3 mph /  4.8 km/h 14 mph /  22.5 km/h 76 % 0.03 in /  0.8 mm
00:52 50.7 °F /  10.4 °C 44.1 °F /  6.7 °C 29.5 in /  997.2 hPa SSE 3 mph /  4.8 km/h 12 mph /  19.3 km/h 78 % 0.04 in /  1.0 mm
00:57 50.7 °F /  10.4 °C 44.1 °F /  6.7 °C 29.4 in /  996.8 hPa ESE 6 mph /  9.7 km/h 12 mph /  19.3 km/h 78 % 0.04 in /  1.0 mm
01:02 50.9 °F /  10.5 °C 44.2 °F /  6.8 °C 29.4 in /  996.8 hPa ESE 4 mph /  6.4 km/h 16 mph /  25.7 km/h 78 % 0.04 in /  1.0 mm
01:07 50.7 °F /  10.4 °C 44.1 °F /  6.7 °C 29.4 in /  996.8 hPa ESE 3 mph /  4.8 km/h 16 mph /  25.7 km/h 78 % 0.05 in /  1.3 mm
01:12 50.5 °F /  10.3 °C 44.2 °F /  6.8 °C 29.4 in /  996.5 hPa South 1 mph /  1.6 km/h 12 mph /  19.3 km/h 79 % 0.05 in /  1.3 mm
01:17 50.4 °F /  10.2 °C 44.1 °F /  6.7 °C 29.4 in /  996.5 hPa SE 2 mph /  3.2 km/h 7 mph /  11.3 km/h 79 % 0.05 in /  1.3 mm
01:22 50.2 °F /  10.1 °C 44.2 °F /  6.8 °C 29.4 in /  996.5 hPa ESE 4 mph /  6.4 km/h 8 mph /  12.9 km/h 80 % 0.05 in /  1.3 mm
01:27 50.2 °F /  10.1 °C 44.2 °F /  6.8 °C 29.4 in /  996.5 hPa ESE 2 mph /  3.2 km/h 8 mph /  12.9 km/h 80 % 0.04 in /  1.0 mm
01:32 50.2 °F /  10.1 °C 43.9 °F /  6.6 °C 29.4 in /  996.5 hPa ESE 5 mph /  8.0 km/h 8 mph /  12.9 km/h 79 % 0.02 in /  0.5 mm
01:37 50.4 °F /  10.2 °C 43.7 °F /  6.5 °C 29.4 in /  996.5 hPa South 2 mph /  3.2 km/h 9 mph /  14.5 km/h 78 % 0.02 in /  0.5 mm
01:42 50.5 °F /  10.3 °C 43.5 °F /  6.4 °C 29.4 in /  996.2 hPa SE 4 mph /  6.4 km/h 9 mph /  14.5 km/h 77 % 0.02 in /  0.5 mm
01:47 50.7 °F /  10.4 °C 43.5 °F /  6.4 °C 29.4 in /  996.2 hPa ESE 7 mph /  11.3 km/h 9 mph /  14.5 km/h 76 % 0.01 in /  0.3 mm
01:52 51.1 °F /  10.6 °C 43.5 °F /  6.4 °C 29.4 in /  996.2 hPa SE 6 mph /  9.7 km/h 9 mph /  14.5 km/h 75 % 0.01 in /  0.3 mm
01:57 51.3 °F /  10.7 °C 43 °F /  6.1 °C 29.4 in /  996.2 hPa ESE 4 mph /  6.4 km/h 9 mph /  14.5 km/h 73 % 0.01 in /  0.3 mm
02:07 51.3 °F /  10.7 °C 43.3 °F /  6.3 °C 29.4 in /  996.2 hPa SSE 3 mph /  4.8 km/h 11 mph /  17.7 km/h 74 % 0 in /  0.0 mm
02:12 51.3 °F /  10.7 °C 43.3 °F /  6.3 °C 29.4 in /  995.8 hPa SE 3 mph /  4.8 km/h 7 mph /  11.3 km/h 74 % 0 in /  0.0 mm
02:17 51.3 °F /  10.7 °C 43.3 °F /  6.3 °C 29.4 in /  995.8 hPa SSE 4 mph /  6.4 km/h 7 mph /  11.3 km/h 74 % 0 in /  0.0 mm
02:22 51.1 °F /  10.6 °C 43.2 °F /  6.2 °C 29.4 in /  995.8 hPa SE 6 mph /  9.7 km/h 6 mph /  9.7 km/h 74 % 0.01 in /  0.3 mm
02:27 50.9 °F /  10.5 °C 43.5 °F /  6.4 °C 29.4 in /  995.8 hPa SE 4 mph /  6.4 km/h 8 mph /  12.9 km/h 76 % 0.01 in /  0.3 mm
02:32 50.7 °F /  10.4 °C 43.7 °F /  6.5 °C 29.4 in /  995.8 hPa SE 4 mph /  6.4 km/h 8 mph /  12.9 km/h 77 % 0.01 in /  0.3 mm
02:37 50.4 °F /  10.2 °C 43.7 °F /  6.5 °C 29.4 in /  995.5 hPa SSE 3 mph /  4.8 km/h 8 mph /  12.9 km/h 78 % 0.02 in /  0.5 mm
02:42 50.4 °F /  10.2 °C 44.1 °F /  6.7 °C 29.4 in /  995.5 hPa SE 3 mph /  4.8 km/h 6 mph /  9.7 km/h 79 % 0.02 in /  0.5 mm
02:47 50.2 °F /  10.1 °C 43.9 °F /  6.6 °C 29.4 in /  995.5 hPa SSE 3 mph /  4.8 km/h 6 mph /  9.7 km/h 79 % 0.02 in /  0.5 mm
02:52 50 °F /  10.0 °C 44.1 °F /  6.7 °C 29.4 in /  995.5 hPa Calm   6 mph /  9.7 km/h 80 % 0.03 in /  0.8 mm
02:57 49.8 °F /  9.9 °C 44.2 °F /  6.8 °C 29.4 in /  995.1 hPa SSE 1 mph /  1.6 km/h 6 mph /  9.7 km/h 81 % 0.03 in /  0.8 mm
03:02 49.8 °F /  9.9 °C 44.2 °F /  6.8 °C 29.4 in /  995.1 hPa SE 4 mph /  6.4 km/h 8 mph /  12.9 km/h 81 % 0.04 in /  1.0 mm
03:07 49.8 °F /  9.9 °C 44.2 °F /  6.8 °C 29.4 in /  995.1 hPa SE 3 mph /  4.8 km/h 8 mph /  12.9 km/h 81 % 0.04 in /  1.0 mm
03:12 49.6 °F /  9.8 °C 44.4 °F /  6.9 °C 29.4 in /  995.1 hPa SSE 2 mph /  3.2 km/h 9 mph /  14.5 km/h 82 % 0.05 in /  1.3 mm
03:17 49.5 °F /  9.7 °C 44.2 °F /  6.8 °C 29.4 in /  995.1 hPa SE 4 mph /  6.4 km/h 9 mph /  14.5 km/h 82 % 0.06 in /  1.5 mm
03:22 49.5 °F /  9.7 °C 44.2 °F /  6.8 °C 29.4 in /  995.1 hPa South 4 mph /  6.4 km/h 9 mph /  14.5 km/h 82 % 0.06 in /  1.5 mm
03:27 49.5 °F /  9.7 °C 44.6 °F /  7.0 °C 29.4 in /  995.1 hPa SSW 6 mph /  9.7 km/h 11 mph /  17.7 km/h 83 % 0.06 in /  1.5 mm
03:32 49.3 °F /  9.6 °C 44.6 °F /  7.0 °C 29.4 in /  994.8 hPa SSE 6 mph /  9.7 km/h 11 mph /  17.7 km/h 84 % 0.06 in /  1.5 mm
03:37 49.1 °F /  9.5 °C 44.8 °F /  7.1 °C 29.4 in /  994.8 hPa SE 5 mph /  8.0 km/h 11 mph /  17.7 km/h 85 % 0.06 in /  1.5 mm
03:42 48.9 °F /  9.4 °C 45 °F /  7.2 °C 29.4 in /  994.8 hPa South 3 mph /  4.8 km/h 10 mph /  16.1 km/h 86 % 0.06 in /  1.5 mm
03:47 48.9 °F /  9.4 °C 45 °F /  7.2 °C 29.4 in /  994.8 hPa South 5 mph /  8.0 km/h 10 mph /  16.1 km/h 86 % 0.06 in /  1.5 mm
03:52 48.9 °F /  9.4 °C 45 °F /  7.2 °C 29.4 in /  994.8 hPa SE 3 mph /  4.8 km/h 10 mph /  16.1 km/h 86 % 0.06 in /  1.5 mm
03:57 48.9 °F /  9.4 °C 45 °F /  7.2 °C 29.4 in /  994.8 hPa SE 6 mph /  9.7 km/h 10 mph /  16.1 km/h 86 % 0.06 in /  1.5 mm
04:02 48.7 °F /  9.3 °C 44.8 °F /  7.1 °C 29.4 in /  994.5 hPa SSE 3 mph /  4.8 km/h 10 mph /  16.1 km/h 86 % 0.07 in /  1.8 mm
04:07 48.7 °F /  9.3 °C 44.8 °F /  7.1 °C 29.4 in /  994.8 hPa SE 7 mph /  11.3 km/h 10 mph /  16.1 km/h 86 % 0.06 in /  1.5 mm
04:12 48.7 °F /  9.3 °C 45 °F /  7.2 °C 29.4 in /  994.8 hPa SE 2 mph /  3.2 km/h 10 mph /  16.1 km/h 87 % 0.06 in /  1.5 mm
04:17 48.6 °F /  9.2 °C 44.8 °F /  7.1 °C 29.4 in /  994.5 hPa SSE 5 mph /  8.0 km/h 10 mph /  16.1 km/h 87 % 0.07 in /  1.8 mm
04:22 48.6 °F /  9.2 °C 45.1 °F /  7.3 °C 29.4 in /  994.5 hPa SE 4 mph /  6.4 km/h 10 mph /  16.1 km/h 88 % 0.07 in /  1.8 mm
04:27 48.4 °F /  9.1 °C 45 °F /  7.2 °C 29.4 in /  994.5 hPa SSE 3 mph /  4.8 km/h 9 mph /  14.5 km/h 88 % 0.08 in /  2.0 mm
04:32 48.4 °F /  9.1 °C 45 °F /  7.2 °C 29.4 in /  994.5 hPa SSE 6 mph /  9.7 km/h 10 mph /  16.1 km/h 88 % 0.07 in /  1.8 mm
04:37 48.4 °F /  9.1 °C 45.3 °F /  7.4 °C 29.4 in /  994.5 hPa SSW 3 mph /  4.8 km/h 10 mph /  16.1 km/h 89 % 0.07 in /  1.8 mm
04:42 48.2 °F /  9.0 °C 45.1 °F /  7.3 °C 29.4 in /  994.5 hPa SSE 3 mph /  4.8 km/h 10 mph /  16.1 km/h 89 % 0.07 in /  1.8 mm
04:47 48 °F /  8.9 °C 45 °F /  7.2 °C 29.4 in /  994.5 hPa South 3 mph /  4.8 km/h 10 mph /  16.1 km/h 89 % 0.07 in /  1.8 mm
04:52 48 °F /  8.9 °C 45 °F /  7.2 °C 29.4 in /  994.1 hPa SSE 3 mph /  4.8 km/h 10 mph /  16.1 km/h 89 % 0.07 in /  1.8 mm
04:57 47.8 °F /  8.8 °C 45 °F /  7.2 °C 29.4 in /  994.1 hPa South 2 mph /  3.2 km/h 7 mph /  11.3 km/h 90 % 0.08 in /  2.0 mm
05:02 47.8 °F /  8.8 °C 45 °F /  7.2 °C 29.4 in /  994.1 hPa SE 3 mph /  4.8 km/h 7 mph /  11.3 km/h 90 % 0.07 in /  1.8 mm
05:07 47.8 °F /  8.8 °C 45 °F /  7.2 °C 29.4 in /  994.1 hPa South 2 mph /  3.2 km/h 6 mph /  9.7 km/h 90 % 0.07 in /  1.8 mm
05:12 47.7 °F /  8.7 °C 45 °F /  7.2 °C 29.4 in /  994.1 hPa South 3 mph /  4.8 km/h 5 mph /  8.0 km/h 90 % 0.07 in /  1.8 mm
05:17 47.7 °F /  8.7 °C 45.1 °F /  7.3 °C 29.4 in /  994.1 hPa SE 1 mph /  1.6 km/h 5 mph /  8.0 km/h 91 % 0.06 in /  1.5 mm
05:22 47.5 °F /  8.6 °C 45 °F /  7.2 °C 29.4 in /  993.8 hPa SSE 1 mph /  1.6 km/h 5 mph /  8.0 km/h 91 % 0.06 in /  1.5 mm
05:27 47.5 °F /  8.6 °C 45 °F /  7.2 °C 29.4 in /  993.8 hPa SSW 1 mph /  1.6 km/h 5 mph /  8.0 km/h 91 % 0.06 in /  1.5 mm
05:32 47.3 °F /  8.5 °C 44.8 °F /  7.1 °C 29.4 in /  993.8 hPa SSE 2 mph /  3.2 km/h 4 mph /  6.4 km/h 91 % 0.06 in /  1.5 mm
05:37 47.3 °F /  8.5 °C 45.1 °F /  7.3 °C 29.4 in /  993.8 hPa SSE 1 mph /  1.6 km/h 3 mph /  4.8 km/h 92 % 0.06 in /  1.5 mm
05:42 47.1 °F /  8.4 °C 45 °F /  7.2 °C 29.4 in /  994.1 hPa SSE 2 mph /  3.2 km/h 3 mph /  4.8 km/h 92 % 0.06 in /  1.5 mm
05:47 47.1 °F /  8.4 °C 45 °F /  7.2 °C 29.4 in /  993.8 hPa SSW 2 mph /  3.2 km/h 3 mph /  4.8 km/h 92 % 0.05 in /  1.3 mm
05:52 47.1 °F /  8.4 °C 45 °F /  7.2 °C 29.4 in /  993.8 hPa WSW 2 mph /  3.2 km/h 3 mph /  4.8 km/h 92 % 0.05 in /  1.3 mm
05:57 46.9 °F /  8.3 °C 45 °F /  7.2 °C 29.4 in /  993.8 hPa South 1 mph /  1.6 km/h 3 mph /  4.8 km/h 93 % 0.05 in /  1.3 mm
06:02 46.9 °F /  8.3 °C 45 °F /  7.2 °C 29.4 in /  993.8 hPa SW 1 mph /  1.6 km/h 2 mph /  3.2 km/h 93 % 0.05 in /  1.3 mm
06:07 46.8 °F /  8.2 °C 44.8 °F /  7.1 °C 29.4 in /  993.8 hPa Calm   2 mph /  3.2 km/h 93 % 0.04 in /  1.0 mm
06:12 46.8 °F /  8.2 °C 44.8 °F /  7.1 °C 29.3 in /  993.5 hPa Calm   2 mph /  3.2 km/h 93 % 0.05 in /  1.3 mm
06:17 46.6 °F /  8.1 °C 44.6 °F /  7.0 °C 29.3 in /  993.5 hPa Calm   2 mph /  3.2 km/h 93 % 0.04 in /  1.0 mm
06:22 46.6 °F /  8.1 °C 45 °F /  7.2 °C 29.3 in /  993.5 hPa Calm   1 mph /  1.6 km/h 94 % 0.05 in /  1.3 mm
06:27 46.6 °F /  8.1 °C 45 °F /  7.2 °C 29.3 in /  993.5 hPa Calm   1 mph /  1.6 km/h 94 % 0.05 in /  1.3 mm
06:32 46.6 °F /  8.1 °C 45 °F /  7.2 °C 29.3 in /  993.5 hPa Calm   1 mph /  1.6 km/h 94 % 0.05 in /  1.3 mm
06:37 46.4 °F /  8.0 °C 44.8 °F /  7.1 °C 29.3 in /  993.5 hPa WSW 1 mph /  1.6 km/h 1 mph /  1.6 km/h 94 % 0.05 in /  1.3 mm
06:42 46.2 °F /  7.9 °C 44.6 °F /  7.0 °C 29.3 in /  993.5 hPa WSW 1 mph /  1.6 km/h 1 mph /  1.6 km/h 94 % 0.05 in /  1.3 mm
06:47 46.2 °F /  7.9 °C 44.8 °F /  7.1 °C 29.3 in /  993.5 hPa SW 1 mph /  1.6 km/h 1 mph /  1.6 km/h 95 % 0.05 in /  1.3 mm
06:52 46.2 °F /  7.9 °C 44.8 °F /  7.1 °C 29.3 in /  993.5 hPa Calm   2 mph /  3.2 km/h 95 % 0.06 in /  1.5 mm
07:02 46.2 °F /  7.9 °C 44.8 °F /  7.1 °C 29.3 in /  993.5 hPa Calm   2 mph /  3.2 km/h 95 % 0.06 in /  1.5 mm
07:12 46.2 °F /  7.9 °C 44.8 °F /  7.1 °C 29.3 in /  993.5 hPa Calm   1 mph /  1.6 km/h 95 % 0.06 in /  1.5 mm
07:17 46 °F /  7.8 °C 44.6 °F /  7.0 °C 29.3 in /  993.1 hPa Calm   1 mph /  1.6 km/h 95 % 0.07 in /  1.8 mm
07:22 46 °F /  7.8 °C 44.6 °F /  7.0 °C 29.3 in /  993.1 hPa Calm   1 mph /  1.6 km/h 95 % 0.07 in /  1.8 mm
07:32 46 °F /  7.8 °C 44.6 °F /  7.0 °C 29.3 in /  993.1 hPa Calm   1 mph /  1.6 km/h 95 % 0.07 in /  1.8 mm
07:37 46 °F /  7.8 °C 44.6 °F /  7.0 °C 29.3 in /  993.1 hPa Calm   1 mph /  1.6 km/h 95 % 0.07 in /  1.8 mm
07:42 46 °F /  7.8 °C 45 °F /  7.2 °C 29.3 in /  993.1 hPa South 1 mph /  1.6 km/h 2 mph /  3.2 km/h 96 % 0.08 in /  2.0 mm
07:47 46 °F /  7.8 °C 45 °F /  7.2 °C 29.3 in /  992.8 hPa SW 2 mph /  3.2 km/h 2 mph /  3.2 km/h 96 % 0.09 in /  2.3 mm
07:52 46 °F /  7.8 °C 45 °F /  7.2 °C 29.3 in /  992.8 hPa SW 2 mph /  3.2 km/h 2 mph /  3.2 km/h 96 % 0.08 in /  2.0 mm
07:57 46 °F /  7.8 °C 45 °F /  7.2 °C 29.3 in /  992.8 hPa SW 2 mph /  3.2 km/h 3 mph /  4.8 km/h 96 % 0.08 in /  2.0 mm
08:02 46 °F /  7.8 °C 45 °F /  7.2 °C 29.3 in /  992.8 hPa SW 3 mph /  4.8 km/h 3 mph /  4.8 km/h 96 % 0.08 in /  2.0 mm
08:12 46 °F /  7.8 °C 45 °F /  7.2 °C 29.3 in /  992.4 hPa WSW 1 mph /  1.6 km/h 3 mph /  4.8 km/h 96 % 0.08 in /  2.0 mm
08:17 46 °F /  7.8 °C 45 °F /  7.2 °C 29.3 in /  992.4 hPa WSW 2 mph /  3.2 km/h 3 mph /  4.8 km/h 96 % 0.09 in /  2.3 mm
08:22 46 °F /  7.8 °C 45 °F /  7.2 °C 29.3 in /  992.4 hPa WSW 3 mph /  4.8 km/h 4 mph /  6.4 km/h 96 % 0.08 in /  2.0 mm
08:32 46 °F /  7.8 °C 45 °F /  7.2 °C 29.3 in /  992.4 hPa WSW 2 mph /  3.2 km/h 4 mph /  6.4 km/h 96 % 0.08 in /  2.0 mm
08:37 46 °F /  7.8 °C 45 °F /  7.2 °C 29.3 in /  992.4 hPa WSW 6 mph /  9.7 km/h 6 mph /  9.7 km/h 96 % 0.07 in /  1.8 mm
08:42 46 °F /  7.8 °C 45 °F /  7.2 °C 29.3 in /  992.4 hPa SW 3 mph /  4.8 km/h 6 mph /  9.7 km/h 96 % 0.07 in /  1.8 mm
08:52 45.9 °F /  7.7 °C 44.8 °F /  7.1 °C 29.3 in /  992.8 hPa West 6 mph /  9.7 km/h 8 mph /  12.9 km/h 96 % 0.07 in /  1.8 mm
08:57 45.9 °F /  7.7 °C 44.8 °F /  7.1 °C 29.3 in /  992.8 hPa WSW 2 mph /  3.2 km/h 8 mph /  12.9 km/h 96 % 0.07 in /  1.8 mm
09:02 45.7 °F /  7.6 °C 44.4 °F /  6.9 °C 29.3 in /  992.8 hPa WSW 4 mph /  6.4 km/h 7 mph /  11.3 km/h 95 % 0.07 in /  1.8 mm
09:07 45.7 °F /  7.6 °C 44.4 °F /  6.9 °C 29.3 in /  992.8 hPa West 5 mph /  8.0 km/h 7 mph /  11.3 km/h 95 % 0.08 in /  2.0 mm
09:12 45.7 °F /  7.6 °C 44.4 °F /  6.9 °C 29.3 in /  992.8 hPa West 5 mph /  8.0 km/h 8 mph /  12.9 km/h 95 % 0.08 in /  2.0 mm
09:17 45.7 °F /  7.6 °C 44.4 °F /  6.9 °C 29.3 in /  992.8 hPa WSW 7 mph /  11.3 km/h 9 mph /  14.5 km/h 95 % 0.08 in /  2.0 mm
09:22 45.7 °F /  7.6 °C 44.4 °F /  6.9 °C 29.3 in /  993.1 hPa West 5 mph /  8.0 km/h 9 mph /  14.5 km/h 95 % 0.08 in /  2.0 mm
09:32 45.7 °F /  7.6 °C 44.4 °F /  6.9 °C 29.3 in /  993.1 hPa WSW 4 mph /  6.4 km/h 8 mph /  12.9 km/h 95 % 0.09 in /  2.3 mm
09:42 45.7 °F /  7.6 °C 44.4 °F /  6.9 °C 29.3 in /  993.1 hPa WSW 5 mph /  8.0 km/h 9 mph /  14.5 km/h 95 % 0.09 in /  2.3 mm
09:47 45.7 °F /  7.6 °C 44.4 °F /  6.9 °C 29.3 in /  992.8 hPa WSW 6 mph /  9.7 km/h 9 mph /  14.5 km/h 95 % 0.09 in /  2.3 mm
09:52 45.7 °F /  7.6 °C 44.4 °F /  6.9 °C 29.3 in /  992.8 hPa WSW 4 mph /  6.4 km/h 9 mph /  14.5 km/h 95 % 0.08 in /  2.0 mm
09:57 45.7 °F /  7.6 °C 44.4 °F /  6.9 °C 29.3 in /  993.1 hPa WSW 3 mph /  4.8 km/h 7 mph /  11.3 km/h 95 % 0.08 in /  2.0 mm
10:02 45.7 °F /  7.6 °C 44.4 °F /  6.9 °C 29.3 in /  993.1 hPa WSW 4 mph /  6.4 km/h 7 mph /  11.3 km/h 95 % 0.07 in /  1.8 mm
10:07 45.7 °F /  7.6 °C 44.4 °F /  6.9 °C 29.3 in /  993.1 hPa WSW 3 mph /  4.8 km/h 6 mph /  9.7 km/h 95 % 0.07 in /  1.8 mm
10:12 45.7 °F /  7.6 °C 44.4 °F /  6.9 °C 29.3 in /  993.1 hPa SSW 1 mph /  1.6 km/h 5 mph /  8.0 km/h 95 % 0.06 in /  1.5 mm
10:17 45.7 °F /  7.6 °C 44.4 °F /  6.9 °C 29.3 in /  993.1 hPa SSW 4 mph /  6.4 km/h 5 mph /  8.0 km/h 95 % 0.06 in /  1.5 mm
10:22 45.7 °F /  7.6 °C 44.4 °F /  6.9 °C 29.3 in /  993.1 hPa SW 4 mph /  6.4 km/h 6 mph /  9.7 km/h 95 % 0.06 in /  1.5 mm
10:27 45.7 °F /  7.6 °C 44.4 °F /  6.9 °C 29.3 in /  993.1 hPa WSW 4 mph /  6.4 km/h 6 mph /  9.7 km/h 95 % 0.06 in /  1.5 mm
10:32 45.7 °F /  7.6 °C 44.4 °F /  6.9 °C 29.3 in /  993.1 hPa WSW 2 mph /  3.2 km/h 6 mph /  9.7 km/h 95 % 0.06 in /  1.5 mm
10:42 45.7 °F /  7.6 °C 44.4 °F /  6.9 °C 29.4 in /  993.8 hPa South 6 mph /  9.7 km/h 7 mph /  11.3 km/h 95 % 0.06 in /  1.5 mm
10:47 45.7 °F /  7.6 °C 44.4 °F /  6.9 °C 29.4 in /  993.8 hPa SSW 6 mph /  9.7 km/h 7 mph /  11.3 km/h 95 % 0.05 in /  1.3 mm
10:52 45.7 °F /  7.6 °C 44.4 °F /  6.9 °C 29.4 in /  993.8 hPa SSW 3 mph /  4.8 km/h 8 mph /  12.9 km/h 95 % 0.05 in /  1.3 mm
10:57 45.3 °F /  7.4 °C 43.7 °F /  6.5 °C 29.4 in /  993.8 hPa SSW 1 mph /  1.6 km/h 8 mph /  12.9 km/h 94 % 0.06 in /  1.5 mm
11:02 45.3 °F /  7.4 °C 43.7 °F /  6.5 °C 29.3 in /  993.5 hPa WSW 3 mph /  4.8 km/h 7 mph /  11.3 km/h 94 % 0.06 in /  1.5 mm
11:07 45.1 °F /  7.3 °C 43.5 °F /  6.4 °C 29.4 in /  993.8 hPa SW 2 mph /  3.2 km/h 8 mph /  12.9 km/h 94 % 0.05 in /  1.3 mm
11:12 45.3 °F /  7.4 °C 43.7 °F /  6.5 °C 29.3 in /  993.5 hPa WSW 2 mph /  3.2 km/h 8 mph /  12.9 km/h 94 % 0.04 in /  1.0 mm
11:22 45.1 °F /  7.3 °C 43.5 °F /  6.4 °C 29.3 in /  993.5 hPa SSW 4 mph /  6.4 km/h 6 mph /  9.7 km/h 94 % 0.04 in /  1.0 mm
11:27 45 °F /  7.2 °C 43 °F /  6.1 °C 29.4 in /  993.8 hPa SSW 4 mph /  6.4 km/h 8 mph /  12.9 km/h 93 % 0.03 in /  0.8 mm
11:32 45 °F /  7.2 °C 43 °F /  6.1 °C 29.4 in /  993.8 hPa SSW 6 mph /  9.7 km/h 8 mph /  12.9 km/h 93 % 0.02 in /  0.5 mm
11:37 45 °F /  7.2 °C 43 °F /  6.1 °C 29.4 in /  993.8 hPa SSW 2 mph /  3.2 km/h 7 mph /  11.3 km/h 93 % 0.02 in /  0.5 mm
11:42 45 °F /  7.2 °C 43 °F /  6.1 °C 29.4 in /  994.1 hPa SE 2 mph /  3.2 km/h 6 mph /  9.7 km/h 93 % 0.02 in /  0.5 mm
11:47 45 °F /  7.2 °C 43 °F /  6.1 °C 29.4 in /  994.1 hPa SSW 3 mph /  4.8 km/h 6 mph /  9.7 km/h 93 % 0.02 in /  0.5 mm
11:52 44.8 °F /  7.1 °C 42.8 °F /  6.0 °C 29.4 in /  993.8 hPa SSW 4 mph /  6.4 km/h 8 mph /  12.9 km/h 93 % 0.02 in /  0.5 mm
11:57 44.8 °F /  7.1 °C 42.6 °F /  5.9 °C 29.4 in /  993.8 hPa SSW 3 mph /  4.8 km/h 8 mph /  12.9 km/h 92 % 0.02 in /  0.5 mm
12:02 45 °F /  7.2 °C 43 °F /  6.1 °C 29.4 in /  993.8 hPa SSW 5 mph /  8.0 km/h 8 mph /  12.9 km/h 93 % 0.02 in /  0.5 mm
12:07 45 °F /  7.2 °C 42.8 °F /  6.0 °C 29.4 in /  993.8 hPa WSW 8 mph /  12.9 km/h 8 mph /  12.9 km/h 92 % 0.02 in /  0.5 mm
12:12 45 °F /  7.2 °C 42.8 °F /  6.0 °C 29.3 in /  993.5 hPa WSW 8 mph /  12.9 km/h 9 mph /  14.5 km/h 92 % 0.01 in /  0.3 mm
12:17 45 °F /  7.2 °C 42.8 °F /  6.0 °C 29.3 in /  993.5 hPa WSW 5 mph /  8.0 km/h 10 mph /  16.1 km/h 92 % 0.01 in /  0.3 mm
12:22 45 °F /  7.2 °C 43 °F /  6.1 °C 29.4 in /  993.8 hPa SW 3 mph /  4.8 km/h 10 mph /  16.1 km/h 93 % 0.01 in /  0.3 mm
12:27 45.1 °F /  7.3 °C 43.2 °F /  6.2 °C 29.4 in /  993.8 hPa WSW 6 mph /  9.7 km/h 10 mph /  16.1 km/h 93 % 0.01 in /  0.3 mm
12:32 45.1 °F /  7.3 °C 43 °F /  6.1 °C 29.3 in /  993.5 hPa WSW 5 mph /  8.0 km/h 9 mph /  14.5 km/h 92 % 0.01 in /  0.3 mm
12:42 45.3 °F /  7.4 °C 43.3 °F /  6.3 °C 29.3 in /  993.5 hPa WSW 5 mph /  8.0 km/h 10 mph /  16.1 km/h 93 % 0.01 in /  0.3 mm
12:47 45.1 °F /  7.3 °C 42.6 °F /  5.9 °C 29.4 in /  993.8 hPa WSW 9 mph /  14.5 km/h 10 mph /  16.1 km/h 91 % 0.02 in /  0.5 mm
12:52 45 °F /  7.2 °C 43 °F /  6.1 °C 29.4 in /  993.8 hPa SW 7 mph /  11.3 km/h 13 mph /  20.9 km/h 93 % 0.02 in /  0.5 mm
12:57 45 °F /  7.2 °C 43 °F /  6.1 °C 29.4 in /  993.8 hPa SW 10 mph /  16.1 km/h 13 mph /  20.9 km/h 93 % 0.02 in /  0.5 mm
13:02 44.8 °F /  7.1 °C 42.8 °F /  6.0 °C 29.4 in /  993.8 hPa WSW 14 mph /  22.5 km/h 14 mph /  22.5 km/h 93 % 0.02 in /  0.5 mm
13:07 44.8 °F /  7.1 °C 42.8 °F /  6.0 °C 29.4 in /  993.8 hPa SW 5 mph /  8.0 km/h 14 mph /  22.5 km/h 93 % 0.02 in /  0.5 mm
13:12 44.8 °F /  7.1 °C 43.2 °F /  6.2 °C 29.4 in /  994.1 hPa SSW 6 mph /  9.7 km/h 14 mph /  22.5 km/h 94 % 0.03 in /  0.8 mm
13:17 44.4 °F /  6.9 °C 42.4 °F /  5.8 °C 29.4 in /  994.1 hPa SW 12 mph /  19.3 km/h 14 mph /  22.5 km/h 93 % 0.04 in /  1.0 mm
13:22 44.2 °F /  6.8 °C 42.3 °F /  5.7 °C 29.4 in /  994.1 hPa SW 6 mph /  9.7 km/h 14 mph /  22.5 km/h 93 % 0.06 in /  1.5 mm
13:27 44.2 °F /  6.8 °C 42.3 °F /  5.7 °C 29.4 in /  994.1 hPa SW 6 mph /  9.7 km/h 12 mph /  19.3 km/h 93 % 0.06 in /  1.5 mm
13:32 44.1 °F /  6.7 °C 42.1 °F /  5.6 °C 29.4 in /  994.1 hPa SW 7 mph /  11.3 km/h 12 mph /  19.3 km/h 93 % 0.07 in /  1.8 mm
13:37 44.2 °F /  6.8 °C 42.3 °F /  5.7 °C 29.4 in /  994.1 hPa SW 7 mph /  11.3 km/h 11 mph /  17.7 km/h 93 % 0.08 in /  2.0 mm
13:42 44.2 °F /  6.8 °C 42.6 °F /  5.9 °C 29.4 in /  994.1 hPa SW 10 mph /  16.1 km/h 16 mph /  25.7 km/h 94 % 0.09 in /  2.3 mm
13:47 44.2 °F /  6.8 °C 42.3 °F /  5.7 °C 29.4 in /  994.5 hPa SW 8 mph /  12.9 km/h 16 mph /  25.7 km/h 93 % 0.09 in /  2.3 mm
13:52 44.1 °F /  6.7 °C 42.1 °F /  5.6 °C 29.4 in /  994.5 hPa SW 6 mph /  9.7 km/h 16 mph /  25.7 km/h 93 % 0.09 in /  2.3 mm
13:57 43.9 °F /  6.6 °C 41.7 °F /  5.4 °C 29.4 in /  994.5 hPa SW 10 mph /  16.1 km/h 15 mph /  24.1 km/h 92 % 0.09 in /  2.3 mm
14:02 43.7 °F /  6.5 °C 41 °F /  5.0 °C 29.4 in /  994.5 hPa West 9 mph /  14.5 km/h 16 mph /  25.7 km/h 90 % 0.1 in /  2.5 mm
14:12 43.5 °F /  6.4 °C 40.3 °F /  4.6 °C 29.4 in /  994.8 hPa WNW 7 mph /  11.3 km/h 21 mph /  33.8 km/h 88 % 0.1 in /  2.5 mm
14:17 43.3 °F /  6.3 °C 39.7 °F /  4.3 °C 29.4 in /  994.8 hPa West 4 mph /  6.4 km/h 21 mph /  33.8 km/h 87 % 0.09 in /  2.3 mm
14:22 43.3 °F /  6.3 °C 40.1 °F /  4.5 °C 29.4 in /  994.8 hPa West 6 mph /  9.7 km/h 14 mph /  22.5 km/h 88 % 0.09 in /  2.3 mm
14:32 43.5 °F /  6.4 °C 40.8 °F /  4.9 °C 29.4 in /  994.5 hPa West 3 mph /  4.8 km/h 13 mph /  20.9 km/h 90 % 0.07 in /  1.8 mm
14:37 43.7 °F /  6.5 °C 41 °F /  5.0 °C 29.4 in /  994.5 hPa WNW 5 mph /  8.0 km/h 12 mph /  19.3 km/h 90 % 0.06 in /  1.5 mm
14:42 43.9 °F /  6.6 °C 41.2 °F /  5.1 °C 29.4 in /  994.5 hPa WSW 6 mph /  9.7 km/h 10 mph /  16.1 km/h 90 % 0.06 in /  1.5 mm
14:47 44.1 °F /  6.7 °C 41.4 °F /  5.2 °C 29.4 in /  994.5 hPa West 5 mph /  8.0 km/h 10 mph /  16.1 km/h 90 % 0.06 in /  1.5 mm
14:52 44.2 °F /  6.8 °C 41.5 °F /  5.3 °C 29.4 in /  994.8 hPa West 2 mph /  3.2 km/h 10 mph /  16.1 km/h 90 % 0.06 in /  1.5 mm
14:57 44.4 °F /  6.9 °C 41.7 °F /  5.4 °C 29.4 in /  994.8 hPa WNW 3 mph /  4.8 km/h 9 mph /  14.5 km/h 90 % 0.04 in /  1.0 mm
15:02 44.4 °F /  6.9 °C 41.9 °F /  5.5 °C 29.4 in /  994.8 hPa SW 4 mph /  6.4 km/h 9 mph /  14.5 km/h 91 % 0.03 in /  0.8 mm
15:07 44.6 °F /  7.0 °C 42.1 °F /  5.6 °C 29.4 in /  994.8 hPa West 5 mph /  8.0 km/h 11 mph /  17.7 km/h 91 % 0.02 in /  0.5 mm
15:12 44.8 °F /  7.1 °C 42.3 °F /  5.7 °C 29.4 in /  994.8 hPa West 5 mph /  8.0 km/h 11 mph /  17.7 km/h 91 % 0.02 in /  0.5 mm
15:17 45 °F /  7.2 °C 42.8 °F /  6.0 °C 29.4 in /  994.8 hPa SW 5 mph /  8.0 km/h 11 mph /  17.7 km/h 92 % 0.01 in /  0.3 mm
15:22 45.1 °F /  7.3 °C 43 °F /  6.1 °C 29.4 in /  995.1 hPa SW 3 mph /  4.8 km/h 9 mph /  14.5 km/h 92 % 0.01 in /  0.3 mm
15:27 45.5 °F /  7.5 °C 43.3 °F /  6.3 °C 29.4 in /  995.1 hPa WSW 4 mph /  6.4 km/h 9 mph /  14.5 km/h 92 % 0.01 in /  0.3 mm
15:32 46 °F /  7.8 °C 44.1 °F /  6.7 °C 29.4 in /  995.1 hPa West 6 mph /  9.7 km/h 9 mph /  14.5 km/h 93 % 0.01 in /  0.3 mm
15:37 46.6 °F /  8.1 °C 44.1 °F /  6.7 °C 29.4 in /  995.1 hPa SW 5 mph /  8.0 km/h 14 mph /  22.5 km/h 91 % 0.01 in /  0.3 mm
15:42 46.8 °F /  8.2 °C 44.2 °F /  6.8 °C 29.4 in /  995.1 hPa WNW 7 mph /  11.3 km/h 14 mph /  22.5 km/h 91 % 0 in /  0.0 mm
15:52 46.9 °F /  8.3 °C 43.3 °F /  6.3 °C 29.4 in /  995.5 hPa West 10 mph /  16.1 km/h 16 mph /  25.7 km/h 87 % 0 in /  0.0 mm
15:57 47.1 °F /  8.4 °C 43.7 °F /  6.5 °C 29.4 in /  995.5 hPa West 11 mph /  17.7 km/h 17 mph /  27.4 km/h 88 % 0 in /  0.0 mm
16:02 46.9 °F /  8.3 °C 43.3 °F /  6.3 °C 29.4 in /  995.5 hPa WSW 12 mph /  19.3 km/h 17 mph /  27.4 km/h 87 % 0 in /  0.0 mm
16:07 46.9 °F /  8.3 °C 43.3 °F /  6.3 °C 29.4 in /  995.5 hPa West 9 mph /  14.5 km/h 17 mph /  27.4 km/h 87 % 0 in /  0.0 mm
16:12 46.9 °F /  8.3 °C 43 °F /  6.1 °C 29.4 in /  995.8 hPa WSW 8 mph /  12.9 km/h 17 mph /  27.4 km/h 86 % 0 in /  0.0 mm
16:17 46.9 °F /  8.3 °C 42.6 °F /  5.9 °C 29.4 in /  995.8 hPa West 11 mph /  17.7 km/h 17 mph /  27.4 km/h 85 % 0 in /  0.0 mm
16:22 46.9 °F /  8.3 °C 42.6 °F /  5.9 °C 29.4 in /  995.8 hPa WSW 6 mph /  9.7 km/h 15 mph /  24.1 km/h 85 % 0 in /  0.0 mm
16:27 46.8 °F /  8.2 °C 42.3 °F /  5.7 °C 29.4 in /  996.2 hPa West 10 mph /  16.1 km/h 14 mph /  22.5 km/h 84 % 0 in /  0.0 mm
16:32 46.6 °F /  8.1 °C 42.1 °F /  5.6 °C 29.4 in /  996.2 hPa West 13 mph /  20.9 km/h 16 mph /  25.7 km/h 84 % 0 in /  0.0 mm
16:42 46.6 °F /  8.1 °C 42.3 °F /  5.7 °C 29.4 in /  996.2 hPa WSW 9 mph /  14.5 km/h 18 mph /  29.0 km/h 85 % 0 in /  0.0 mm
16:47 46.6 °F /  8.1 °C 42.1 °F /  5.6 °C 29.4 in /  996.5 hPa WSW 8 mph /  12.9 km/h 18 mph /  29.0 km/h 84 % 0 in /  0.0 mm
16:52 46.6 °F /  8.1 °C 42.3 °F /  5.7 °C 29.4 in /  996.5 hPa West 9 mph /  14.5 km/h 16 mph /  25.7 km/h 85 % 0 in /  0.0 mm
16:57 46.6 °F /  8.1 °C 42.6 °F /  5.9 °C 29.4 in /  996.5 hPa West 6 mph /  9.7 km/h 16 mph /  25.7 km/h 86 % 0 in /  0.0 mm
17:02 46.6 °F /  8.1 °C 42.6 °F /  5.9 °C 29.4 in /  996.8 hPa WSW 5 mph /  8.0 km/h 16 mph /  25.7 km/h 86 % 0 in /  0.0 mm
17:07 46.6 °F /  8.1 °C 43 °F /  6.1 °C 29.4 in /  996.8 hPa WSW 1 mph /  1.6 km/h 15 mph /  24.1 km/h 87 % 0 in /  0.0 mm
17:12 46.6 °F /  8.1 °C 43 °F /  6.1 °C 29.4 in /  996.8 hPa West 4 mph /  6.4 km/h 12 mph /  19.3 km/h 87 % 0 in /  0.0 mm
17:17 46.6 °F /  8.1 °C 43 °F /  6.1 °C 29.4 in /  996.8 hPa West 1 mph /  1.6 km/h 7 mph /  11.3 km/h 87 % 0 in /  0.0 mm
17:22 46.6 °F /  8.1 °C 43 °F /  6.1 °C 29.5 in /  997.2 hPa SW 4 mph /  6.4 km/h 5 mph /  8.0 km/h 87 % 0 in /  0.0 mm
17:27 45.9 °F /  7.7 °C 41.9 °F /  5.5 °C 29.5 in /  997.2 hPa WSW 7 mph /  11.3 km/h 33 mph /  53.1 km/h 86 % 0 in /  0.0 mm
17:32 45 °F /  7.2 °C 40.5 °F /  4.7 °C 29.5 in /  997.2 hPa WSW 6 mph /  9.7 km/h 33 mph /  53.1 km/h 84 % 0 in /  0.0 mm
17:37 45.1 °F /  7.3 °C 40.6 °F /  4.8 °C 29.5 in /  997.2 hPa West 5 mph /  8.0 km/h 33 mph /  53.1 km/h 84 % 0.01 in /  0.3 mm
17:42 45.3 °F /  7.4 °C 40.8 °F /  4.9 °C 29.5 in /  997.2 hPa WSW 6 mph /  9.7 km/h 15 mph /  24.1 km/h 84 % 0.01 in /  0.3 mm
17:47 45.7 °F /  7.6 °C 41.4 °F /  5.2 °C 29.5 in /  997.5 hPa WSW 7 mph /  11.3 km/h 10 mph /  16.1 km/h 85 % 0.01 in /  0.3 mm
17:52 45.7 °F /  7.6 °C 41.7 °F /  5.4 °C 29.5 in /  997.5 hPa SW 5 mph /  8.0 km/h 12 mph /  19.3 km/h 86 % 0.01 in /  0.3 mm
17:57 45.9 °F /  7.7 °C 41.9 °F /  5.5 °C 29.5 in /  997.9 hPa WSW 8 mph /  12.9 km/h 12 mph /  19.3 km/h 86 % 0.01 in /  0.3 mm
18:02 45.9 °F /  7.7 °C 42.3 °F /  5.7 °C 29.5 in /  997.9 hPa SW 4 mph /  6.4 km/h 12 mph /  19.3 km/h 87 % 0.01 in /  0.3 mm
18:12 45.9 °F /  7.7 °C 42.3 °F /  5.7 °C 29.5 in /  997.9 hPa WSW 8 mph /  12.9 km/h 12 mph /  19.3 km/h 87 % 0.01 in /  0.3 mm
18:17 45.9 °F /  7.7 °C 42.3 °F /  5.7 °C 29.5 in /  998.2 hPa WSW 3 mph /  4.8 km/h 12 mph /  19.3 km/h 87 % 0.01 in /  0.3 mm
18:22 45.9 °F /  7.7 °C 42.3 °F /  5.7 °C 29.5 in /  998.2 hPa WSW 3 mph /  4.8 km/h 12 mph /  19.3 km/h 87 % 0.01 in /  0.3 mm
18:27 45.7 °F /  7.6 °C 42.1 °F /  5.6 °C 29.5 in /  998.2 hPa SW 1 mph /  1.6 km/h 9 mph /  14.5 km/h 87 % 0.01 in /  0.3 mm
18:32 45.7 °F /  7.6 °C 42.1 °F /  5.6 °C 29.5 in /  998.5 hPa SW 5 mph /  8.0 km/h 8 mph /  12.9 km/h 87 % 0 in /  0.0 mm
18:42 45.7 °F /  7.6 °C 42.1 °F /  5.6 °C 29.5 in /  998.5 hPa SW 5 mph /  8.0 km/h 8 mph /  12.9 km/h 87 % 0 in /  0.0 mm
18:47 45.7 °F /  7.6 °C 42.1 °F /  5.6 °C 29.5 in /  998.9 hPa SW 5 mph /  8.0 km/h 9 mph /  14.5 km/h 87 % 0 in /  0.0 mm
18:52 45.7 °F /  7.6 °C 42.1 °F /  5.6 °C 29.5 in /  999.2 hPa SW 6 mph /  9.7 km/h 11 mph /  17.7 km/h 87 % 0 in /  0.0 mm
18:57 45.9 °F /  7.7 °C 41.4 °F /  5.2 °C 29.5 in /  999.2 hPa SW 5 mph /  8.0 km/h 13 mph /  20.9 km/h 84 % 0 in /  0.0 mm
19:02 46 °F /  7.8 °C 41.2 °F /  5.1 °C 29.5 in /  999.5 hPa West 6 mph /  9.7 km/h 13 mph /  20.9 km/h 83 % 0 in /  0.0 mm
19:12 46 °F /  7.8 °C 40.5 °F /  4.7 °C 29.5 in /  999.5 hPa WSW 10 mph /  16.1 km/h 14 mph /  22.5 km/h 81 % 0 in /  0.0 mm
19:17 45.9 °F /  7.7 °C 40.3 °F /  4.6 °C 29.5 in /  999.5 hPa SW 9 mph /  14.5 km/h 14 mph /  22.5 km/h 81 % 0 in /  0.0 mm
19:22 45.9 °F /  7.7 °C 40.3 °F /  4.6 °C 29.5 in /  999.9 hPa WSW 9 mph /  14.5 km/h 14 mph /  22.5 km/h 81 % 0 in /  0.0 mm
19:27 45.9 °F /  7.7 °C 40.6 °F /  4.8 °C 29.5 in /  999.9 hPa WSW 3 mph /  4.8 km/h 16 mph /  25.7 km/h 82 % 0 in /  0.0 mm
19:32 45.9 °F /  7.7 °C 40.6 °F /  4.8 °C 29.5 in /  999.9 hPa SW 4 mph /  6.4 km/h 16 mph /  25.7 km/h 82 % 0 in /  0.0 mm
19:42 45.7 °F /  7.6 °C 40.5 °F /  4.7 °C 29.5 in /  1000.2 hPa SSW 11 mph /  17.7 km/h 13 mph /  20.9 km/h 82 % 0 in /  0.0 mm
19:47 45.5 °F /  7.5 °C 40.3 °F /  4.6 °C 29.5 in /  1000.2 hPa SW 9 mph /  14.5 km/h 15 mph /  24.1 km/h 82 % 0 in /  0.0 mm
19:52 45.3 °F /  7.4 °C 39.9 °F /  4.4 °C 29.5 in /  1000.2 hPa WSW 13 mph /  20.9 km/h 15 mph /  24.1 km/h 81 % 0 in /  0.0 mm
19:57 45.1 °F /  7.3 °C 39.7 °F /  4.3 °C 29.6 in /  1000.6 hPa SW 11 mph /  17.7 km/h 16 mph /  25.7 km/h 81 % 0 in /  0.0 mm
20:07 44.8 °F /  7.1 °C 39.6 °F /  4.2 °C 29.6 in /  1000.6 hPa SSW 10 mph /  16.1 km/h 20 mph /  32.2 km/h 82 % 0 in /  0.0 mm
20:12 44.4 °F /  6.9 °C 39.2 °F /  4.0 °C 29.6 in /  1000.9 hPa West 7 mph /  11.3 km/h 20 mph /  32.2 km/h 82 % 0 in /  0.0 mm
20:17 44.1 °F /  6.7 °C 38.7 °F /  3.7 °C 29.6 in /  1000.9 hPa WSW 11 mph /  17.7 km/h 20 mph /  32.2 km/h 81 % 0 in /  0.0 mm
20:22 43.9 °F /  6.6 °C 38.7 °F /  3.7 °C 29.6 in /  1000.9 hPa WSW 5 mph /  8.0 km/h 18 mph /  29.0 km/h 82 % 0 in /  0.0 mm
20:32 43.3 °F /  6.3 °C 38.5 °F /  3.6 °C 29.6 in /  1001.2 hPa SSW 8 mph /  12.9 km/h 15 mph /  24.1 km/h 83 % 0 in /  0.0 mm
20:37 43.2 °F /  6.2 °C 38.7 °F /  3.7 °C 29.6 in /  1001.2 hPa SW 9 mph /  14.5 km/h 14 mph /  22.5 km/h 84 % 0 in /  0.0 mm
20:42 43.2 °F /  6.2 °C 39 °F /  3.9 °C 29.6 in /  1001.2 hPa WSW 3 mph /  4.8 km/h 14 mph /  22.5 km/h 85 % 0 in /  0.0 mm
20:47 43 °F /  6.1 °C 39 °F /  3.9 °C 29.6 in /  1001.6 hPa SW 7 mph /  11.3 km/h 14 mph /  22.5 km/h 86 % 0 in /  0.0 mm
20:57 42.6 °F /  5.9 °C 38.7 °F /  3.7 °C 29.6 in /  1001.6 hPa WNW 3 mph /  4.8 km/h 12 mph /  19.3 km/h 86 % 0 in /  0.0 mm
21:02 42.8 °F /  6.0 °C 38.8 °F /  3.8 °C 29.6 in /  1001.6 hPa SW 9 mph /  14.5 km/h 12 mph /  19.3 km/h 86 % 0 in /  0.0 mm
21:07 42.8 °F /  6.0 °C 38.8 °F /  3.8 °C 29.6 in /  1001.9 hPa SW 8 mph /  12.9 km/h 12 mph /  19.3 km/h 86 % 0 in /  0.0 mm
21:12 42.8 °F /  6.0 °C 38.8 °F /  3.8 °C 29.6 in /  1001.9 hPa SW 7 mph /  11.3 km/h 15 mph /  24.1 km/h 86 % 0 in /  0.0 mm
21:17 42.8 °F /  6.0 °C 38.8 °F /  3.8 °C 29.6 in /  1001.9 hPa SW 8 mph /  12.9 km/h 15 mph /  24.1 km/h 86 % 0 in /  0.0 mm
21:22 43 °F /  6.1 °C 38.8 °F /  3.8 °C 29.6 in /  1002.3 hPa SW 8 mph /  12.9 km/h 15 mph /  24.1 km/h 85 % 0 in /  0.0 mm
21:27 43 °F /  6.1 °C 38.8 °F /  3.8 °C 29.6 in /  1002.3 hPa SW 8 mph /  12.9 km/h 15 mph /  24.1 km/h 85 % 0 in /  0.0 mm
21:32 43 °F /  6.1 °C 39 °F /  3.9 °C 29.6 in /  1002.3 hPa WSW 9 mph /  14.5 km/h 15 mph /  24.1 km/h 86 % 0 in /  0.0 mm
21:37 43 °F /  6.1 °C 39 °F /  3.9 °C 29.6 in /  1002.3 hPa West 6 mph /  9.7 km/h 15 mph /  24.1 km/h 86 % 0 in /  0.0 mm
21:42 43 °F /  6.1 °C 39 °F /  3.9 °C 29.6 in /  1002.6 hPa SW 4 mph /  6.4 km/h 13 mph /  20.9 km/h 86 % 0 in /  0.0 mm
21:47 43 °F /  6.1 °C 39 °F /  3.9 °C 29.6 in /  1002.6 hPa WSW 8 mph /  12.9 km/h 13 mph /  20.9 km/h 86 % 0 in /  0.0 mm
21:52 43 °F /  6.1 °C 39.4 °F /  4.1 °C 29.6 in /  1002.6 hPa SW 12 mph /  19.3 km/h 13 mph /  20.9 km/h 87 % 0 in /  0.0 mm
21:57 42.8 °F /  6.0 °C 39.2 °F /  4.0 °C 29.6 in /  1002.6 hPa SW 11 mph /  17.7 km/h 12 mph /  19.3 km/h 87 % 0 in /  0.0 mm
22:02 42.8 °F /  6.0 °C 39.6 °F /  4.2 °C 29.6 in /  1002.6 hPa SW 10 mph /  16.1 km/h 14 mph /  22.5 km/h 88 % 0 in /  0.0 mm
22:12 42.6 °F /  5.9 °C 39.4 °F /  4.1 °C 29.6 in /  1002.9 hPa SSW 10 mph /  16.1 km/h 15 mph /  24.1 km/h 88 % 0 in /  0.0 mm
22:17 42.4 °F /  5.8 °C 39.2 °F /  4.0 °C 29.6 in /  1002.9 hPa SW 7 mph /  11.3 km/h 15 mph /  24.1 km/h 88 % 0 in /  0.0 mm
22:22 42.6 °F /  5.9 °C 39.4 °F /  4.1 °C 29.6 in /  1002.9 hPa SW 8 mph /  12.9 km/h 15 mph /  24.1 km/h 88 % 0 in /  0.0 mm
22:27 42.6 °F /  5.9 °C 39.4 °F /  4.1 °C 29.6 in /  1002.9 hPa SW 11 mph /  17.7 km/h 15 mph /  24.1 km/h 88 % 0 in /  0.0 mm
22:32 42.6 °F /  5.9 °C 39.4 °F /  4.1 °C 29.6 in /  1002.9 hPa SW 8 mph /  12.9 km/h 15 mph /  24.1 km/h 88 % 0 in /  0.0 mm
22:37 42.4 °F /  5.8 °C 39.2 °F /  4.0 °C 29.6 in /  1002.9 hPa SW 9 mph /  14.5 km/h 15 mph /  24.1 km/h 88 % 0 in /  0.0 mm
22:42 42.4 °F /  5.8 °C 39.4 °F /  4.1 °C 29.6 in /  1003.3 hPa South 3 mph /  4.8 km/h 16 mph /  25.7 km/h 89 % 0 in /  0.0 mm
22:47 42.3 °F /  5.7 °C 39.2 °F /  4.0 °C 29.6 in /  1003.3 hPa SW 6 mph /  9.7 km/h 16 mph /  25.7 km/h 89 % 0 in /  0.0 mm
22:52 42.1 °F /  5.6 °C 39 °F /  3.9 °C 29.6 in /  1003.3 hPa SW 5 mph /  8.0 km/h 16 mph /  25.7 km/h 89 % 0 in /  0.0 mm
22:57 42.1 °F /  5.6 °C 39.4 °F /  4.1 °C 29.6 in /  1003.3 hPa SW 7 mph /  11.3 km/h 15 mph /  24.1 km/h 90 % 0 in /  0.0 mm
23:02 42.1 °F /  5.6 °C 39.4 °F /  4.1 °C 29.6 in /  1003.3 hPa SW 10 mph /  16.1 km/h 15 mph /  24.1 km/h 90 % 0 in /  0.0 mm
23:07 41.9 °F /  5.5 °C 39.2 °F /  4.0 °C 29.6 in /  1003.6 hPa SW 9 mph /  14.5 km/h 15 mph /  24.1 km/h 90 % 0 in /  0.0 mm
23:12 41.9 °F /  5.5 °C 39.2 °F /  4.0 °C 29.6 in /  1003.6 hPa WSW 2 mph /  3.2 km/h 13 mph /  20.9 km/h 90 % 0 in /  0.0 mm
23:17 41.9 °F /  5.5 °C 39.2 °F /  4.0 °C 29.6 in /  1003.6 hPa SW 4 mph /  6.4 km/h 13 mph /  20.9 km/h 90 % 0 in /  0.0 mm
23:22 41.9 °F /  5.5 °C 39.2 °F /  4.0 °C 29.6 in /  1003.6 hPa WSW 8 mph /  12.9 km/h 12 mph /  19.3 km/h 90 % 0 in /  0.0 mm
23:27 41.9 °F /  5.5 °C 39.2 °F /  4.0 °C 29.6 in /  1003.6 hPa SW 12 mph /  19.3 km/h 12 mph /  19.3 km/h 90 % 0 in /  0.0 mm
23:32 41.7 °F /  5.4 °C 39 °F /  3.9 °C 29.6 in /  1003.6 hPa SW 11 mph /  17.7 km/h 13 mph /  20.9 km/h 90 % 0 in /  0.0 mm
23:42 41.7 °F /  5.4 °C 39 °F /  3.9 °C 29.6 in /  1003.9 hPa SW 8 mph /  12.9 km/h 15 mph /  24.1 km/h 90 % 0 in /  0.0 mm
23:47 41.7 °F /  5.4 °C 39 °F /  3.9 °C 29.6 in /  1003.9 hPa WSW 11 mph /  17.7 km/h 15 mph /  24.1 km/h 90 % 0 in /  0.0 mm
23:52 41.7 °F /  5.4 °C 39.2 °F /  4.0 °C 29.6 in /  1003.9 hPa SSW 8 mph /  12.9 km/h 16 mph /  25.7 km/h 91 % 0 in /  0.0 mm
23:57 41.7 °F /  5.4 °C 39.2 °F /  4.0 °C 29.6 in /  1003.9 hPa WSW 4 mph /  6.4 km/h 16 mph /  25.7 km/h 91 % 0 in /  0.0 mm
Meteo18
Compliments of Weather Underground - 4 mb

Script developed by  Jim McMurry - jmcmurry@mwt.net Adapted for the template by  Wim van der Kuil - Leuven-Template.eu

You find our weather info also at:

European Weather Network

Weather Underground

Equipment we use:

Weather-station
Davis Vue

Weather-program
Meteohub

Weather-server
Raspberry PI 2 B+

Provider
1 and 1

Davis Vue

Meteohub

Raspberry PI 2 B+

1 and 1